createdAt,value
2019-04-07T00:01:21.349Z,100037.00
2019-04-07T00:03:50.873Z,100042.00
2019-04-07T00:06:20.598Z,100038.00
2019-04-07T00:08:50.924Z,100044.00
2019-04-07T00:11:20.647Z,100042.00
2019-04-07T00:13:50.214Z,100044.00
2019-04-07T00:16:20.158Z,100042.00
2019-04-07T00:18:49.632Z,100038.00
2019-04-07T00:21:19.143Z,100042.00
2019-04-07T00:23:48.958Z,100040.00
2019-04-07T00:26:19.117Z,100036.00
2019-04-07T00:28:48.690Z,100048.00
2019-04-07T00:31:18.143Z,100037.00
2019-04-07T00:33:47.629Z,100033.00
2019-04-07T00:36:17.818Z,100029.00
2019-04-07T00:38:47.256Z,100034.00
2019-04-07T00:41:16.860Z,100026.00
2019-04-07T00:43:47.142Z,100026.00
2019-04-07T00:46:16.787Z,100025.00
2019-04-07T00:48:46.212Z,100029.00
2019-04-07T00:51:15.701Z,100026.00
2019-04-07T00:53:46.804Z,100025.00
2019-04-07T00:56:16.308Z,100022.00
2019-04-07T00:58:45.774Z,100023.00
2019-04-07T01:01:16.844Z,100022.00
2019-04-07T01:03:46.446Z,100026.00
2019-04-07T01:06:16.582Z,100019.00
2019-04-07T01:08:46.376Z,100020.00
2019-04-07T01:11:15.837Z,100018.00
2019-04-07T01:13:45.423Z,100019.00
2019-04-07T01:16:20.823Z,100001.00
2019-04-07T01:18:50.270Z,100003.00
2019-04-07T01:21:20.384Z,100011.00
2019-04-07T01:23:50.211Z,99999.00
2019-04-07T01:26:19.651Z,100004.00
2019-04-07T01:28:49.310Z,100010.00
2019-04-07T01:31:18.860Z,100010.00
2019-04-07T01:33:48.896Z,100011.00
2019-04-07T01:36:18.367Z,100010.00
2019-04-07T01:38:47.811Z,100014.00
2019-04-07T01:41:35.599Z,100009.00
2019-04-07T01:44:06.890Z,100012.00
2019-04-07T01:46:38.046Z,100018.00
2019-04-07T01:49:10.648Z,100010.00
2019-04-07T01:51:45.504Z,100018.00
2019-04-07T01:54:33.037Z,100007.00
2019-04-07T01:57:07.219Z,100004.00
2019-04-07T01:59:44.353Z,100007.00
2019-04-07T02:02:15.910Z,100011.00
2019-04-07T02:04:56.381Z,100009.00
2019-04-07T02:07:30.339Z,100006.00
2019-04-07T02:10:10.895Z,100015.00
2019-04-07T02:12:47.958Z,100008.00
2019-04-07T02:15:22.801Z,100011.00
2019-04-07T02:17:53.867Z,100011.00
2019-04-07T02:20:56.810Z,100009.00
2019-04-07T02:23:33.968Z,100005.00
2019-04-07T02:26:08.195Z,100007.00
2019-04-07T02:28:57.417Z,100011.00
2019-04-07T02:31:29.622Z,100007.00
2019-04-07T02:34:17.577Z,99997.00
2019-04-07T02:36:51.956Z,99998.00
2019-04-07T02:39:23.065Z,99999.00
2019-04-07T02:42:10.987Z,100006.00
2019-04-07T02:44:57.857Z,100005.00
2019-04-07T02:47:29.725Z,100007.00
2019-04-07T02:50:07.181Z,100006.00
2019-04-07T02:52:54.838Z,100008.00
2019-04-07T02:55:42.445Z,100003.00
2019-04-07T02:58:13.779Z,100005.00
2019-04-07T03:00:47.489Z,100007.00
2019-04-07T08:46:06.041Z,100137.00
2019-04-07T08:48:35.795Z,100138.00
2019-04-07T08:51:05.852Z,100127.00
2019-04-07T08:53:35.655Z,100126.00
2019-04-07T08:56:06.839Z,100133.00
2019-04-07T08:58:38.767Z,100133.00
2019-04-07T09:01:08.477Z,100140.00
2019-04-07T09:03:38.786Z,100133.00
2019-04-07T09:06:08.496Z,100137.00
2019-04-07T09:08:39.763Z,100140.00
2019-04-07T09:11:11.204Z,100141.00
2019-04-07T09:13:44.140Z,100139.00
2019-04-07T09:16:24.685Z,100135.00
2019-04-07T09:19:01.726Z,100142.00
2019-04-07T09:21:39.969Z,100138.00
2019-04-07T09:24:15.134Z,100137.00
2019-04-07T09:26:46.792Z,100129.00
2019-04-07T09:29:21.034Z,100135.00
2019-04-07T09:31:55.081Z,100137.00
2019-04-07T09:34:32.371Z,100138.00
2019-04-07T09:37:03.435Z,100138.00
2019-04-07T09:39:59.162Z,100135.00
2019-04-07T09:42:40.151Z,100138.00
2019-04-07T09:45:28.760Z,100144.00
2019-04-07T09:48:09.019Z,100147.00
2019-04-07T09:50:43.221Z,100147.00
2019-04-07T09:53:26.019Z,100144.00
2019-04-07T09:56:08.859Z,100137.00
2019-04-07T09:58:45.521Z,100151.00
2019-04-07T10:01:34.065Z,100151.00
2019-04-07T10:04:07.266Z,100138.00
2019-04-07T10:06:54.619Z,100147.00
2019-04-07T10:09:41.128Z,100146.00
2019-04-07T10:12:15.180Z,100147.00
2019-04-07T10:15:02.615Z,100145.00
2019-04-07T10:17:43.092Z,100141.00
2019-04-07T10:20:29.978Z,100139.00
2019-04-07T10:23:10.760Z,100130.00
2019-04-07T10:25:42.309Z,100141.00
2019-04-07T10:28:16.646Z,100135.00
2019-04-07T10:30:56.758Z,100136.00
2019-04-07T10:33:27.896Z,100142.00
2019-04-07T10:36:11.241Z,100141.00
2019-04-07T10:38:42.615Z,100148.00
2019-04-07T10:41:17.211Z,100143.00
2019-04-07T10:43:54.299Z,100136.00
2019-04-07T10:46:25.965Z,100147.00
2019-04-07T10:48:57.219Z,100150.00
2019-04-07T10:51:30.974Z,100140.00
2019-04-07T10:54:05.786Z,100140.00
2019-04-07T10:56:47.928Z,100144.00
2019-04-07T10:59:22.118Z,100146.00
2019-04-07T11:01:59.254Z,100145.00
2019-04-07T11:04:30.639Z,100148.00
2019-04-07T11:07:18.654Z,100148.00
2019-04-07T11:10:15.867Z,100150.00
2019-04-07T11:12:47.031Z,100142.00
2019-04-07T11:15:18.469Z,100140.00
2019-04-07T11:18:11.377Z,100140.00
2019-04-07T11:20:45.575Z,100138.00
2019-04-07T11:23:17.510Z,100133.00
2019-04-07T11:25:54.917Z,100138.00
2019-04-07T11:28:29.138Z,100131.00
2019-04-07T11:31:06.198Z,100137.00
2019-04-07T11:33:38.042Z,100125.00
2019-04-07T11:36:12.023Z,100125.00
2019-04-07T11:38:59.170Z,100133.00
2019-04-07T11:41:33.113Z,100128.00
2019-04-07T11:44:22.906Z,100138.00
2019-04-07T11:47:10.942Z,100140.00
2019-04-07T11:49:43.864Z,100129.00
2019-04-07T11:52:15.659Z,100130.00
2019-04-07T11:55:03.973Z,100128.00
2019-04-07T11:57:35.395Z,100124.00
2019-04-07T12:00:12.351Z,100125.00
2019-04-07T12:02:44.633Z,100130.00
2019-04-07T12:05:32.266Z,100132.00
2019-04-07T12:08:07.258Z,100118.00
2019-04-07T12:10:54.843Z,100126.00
2019-04-07T12:13:20.063Z,100128.00
2019-04-07T12:16:08.046Z,100128.00
2019-04-07T12:18:39.691Z,100132.00
2019-04-07T12:21:23.274Z,100127.00
2019-04-07T12:23:53.380Z,100126.00
2019-04-07T12:26:39.608Z,100129.00
2019-04-07T12:29:27.090Z,100127.00
2019-04-07T12:31:58.413Z,100134.00
2019-04-07T12:34:38.639Z,100135.00
2019-04-07T12:37:22.059Z,100132.00
2019-04-07T12:39:59.011Z,100137.00
2019-04-07T12:42:47.085Z,100140.00
2019-04-07T12:45:28.387Z,100143.00
2019-04-07T12:48:16.739Z,100140.00
2019-04-07T12:50:54.157Z,100146.00
2019-04-07T12:53:33.492Z,100144.00
2019-04-07T12:56:04.792Z,100148.00
2019-04-07T12:58:45.081Z,100144.00
2019-04-07T13:01:19.131Z,100143.00
2019-04-07T13:03:53.698Z,100137.00
2019-04-07T13:06:27.748Z,100133.00
2019-04-07T13:08:59.547Z,100135.00
2019-04-07T13:11:45.236Z,100143.00
2019-04-07T13:14:25.715Z,100134.00
2019-04-07T13:17:02.567Z,100131.00
2019-04-07T13:19:50.185Z,100141.00
2019-04-07T13:22:23.562Z,100144.00
2019-04-07T13:24:57.614Z,100149.00
2019-04-07T13:27:43.583Z,100145.00
2019-04-07T13:30:19.203Z,100143.00
2019-04-07T13:32:56.676Z,100135.00
2019-04-07T13:35:42.153Z,100135.00
2019-04-07T13:38:19.238Z,100137.00
2019-04-07T13:40:50.375Z,100134.00
2019-04-07T13:43:38.098Z,100132.00
2019-04-07T13:46:20.636Z,100137.00
2019-04-07T13:48:51.598Z,100132.00
2019-04-07T13:51:36.589Z,100133.00
2019-04-07T13:54:24.302Z,100131.00
2019-04-07T13:57:05.483Z,100130.00
2019-04-07T13:59:40.043Z,100140.00
2019-04-07T14:02:29.921Z,100133.00
2019-04-07T14:04:58.840Z,100134.00
2019-04-07T14:07:41.748Z,100132.00
2019-04-07T14:10:22.651Z,100129.00
2019-04-07T14:12:54.369Z,100136.00
2019-04-07T14:15:25.963Z,100129.00
2019-04-07T14:18:00.110Z,100132.00
2019-04-07T14:20:40.490Z,100131.00
2019-04-07T14:23:12.157Z,100124.00
2019-04-07T14:25:50.190Z,100129.00
2019-04-07T14:28:28.582Z,100129.00
2019-04-07T14:31:06.474Z,100129.00
2019-04-07T14:33:41.474Z,100137.00
2019-04-07T14:36:18.555Z,100137.00
2019-04-07T14:38:53.036Z,100133.00
2019-04-07T14:41:24.750Z,100143.00
2019-04-07T14:43:56.525Z,100142.00
2019-04-07T14:46:40.188Z,100144.00
2019-04-07T14:49:15.965Z,100137.00
2019-04-07T14:52:03.715Z,100143.00
2019-04-07T14:54:40.858Z,100146.00
2019-04-07T14:57:28.763Z,100143.00
2019-04-07T15:00:05.378Z,100152.00
2019-04-07T15:02:35.417Z,100144.00
2019-04-07T15:05:25.993Z,100147.00
2019-04-07T15:08:06.512Z,100147.00
2019-04-07T15:10:40.850Z,100141.00
2019-04-07T15:13:11.981Z,100145.00
2019-04-07T15:15:41.773Z,100143.00
2019-04-07T15:18:11.637Z,100147.00
2019-04-07T15:20:43.060Z,100144.00
2019-04-07T15:23:13.227Z,100138.00
2019-04-07T15:25:46.022Z,100135.00
2019-04-07T15:28:15.471Z,100133.00
2019-04-07T15:30:47.811Z,100135.00
2019-04-07T15:33:16.188Z,100131.00
2019-04-07T15:35:47.267Z,100130.00
2019-04-07T15:38:16.941Z,100131.00
2019-04-07T15:40:47.090Z,100132.00
2019-04-07T15:43:17.078Z,100136.00
2019-04-07T15:45:46.957Z,100134.00
2019-04-07T15:48:17.134Z,100131.00
2019-04-07T15:50:47.453Z,100132.00
2019-04-07T15:53:17.744Z,100136.00
2019-04-07T15:55:53.454Z,100139.00
2019-04-07T15:58:18.708Z,100141.00
2019-04-07T16:00:48.568Z,100142.00
2019-04-07T16:03:18.380Z,100138.00
2019-04-07T16:05:49.052Z,100144.00
2019-04-07T16:08:18.611Z,100147.00
2019-04-07T16:10:48.034Z,100144.00
2019-04-07T16:13:18.454Z,100140.00
2019-04-07T16:15:51.006Z,100142.00
2019-04-07T16:18:20.044Z,100147.00
2019-04-07T16:20:50.668Z,100141.00
2019-04-07T16:23:20.954Z,100146.00
2019-04-07T16:25:51.212Z,100141.00
2019-04-07T16:28:20.873Z,100147.00
2019-04-07T16:30:52.010Z,100145.00
2019-04-07T16:33:21.751Z,100151.00
2019-04-07T16:35:55.247Z,100149.00
2019-04-07T16:38:22.631Z,100158.00
2019-04-07T16:40:52.713Z,100155.00
2019-04-07T16:43:22.383Z,100156.00
2019-04-07T16:45:53.449Z,100166.00
2019-04-07T16:48:23.176Z,100158.00
2019-04-07T16:50:55.308Z,100165.00
2019-04-07T16:53:24.748Z,100173.00
2019-04-07T16:55:55.675Z,100172.00
2019-04-07T16:58:25.510Z,100182.00
2019-04-07T17:00:55.957Z,100174.00
2019-04-07T17:03:25.823Z,100177.00
2019-04-07T17:05:59.993Z,100179.00
2019-04-07T17:08:28.838Z,100180.00
2019-04-07T17:10:59.569Z,100181.00
2019-04-07T17:13:37.473Z,100186.00
2019-04-07T17:16:02.713Z,100191.00
2019-04-07T17:18:39.364Z,100199.00
2019-04-07T17:21:15.923Z,100190.00
2019-04-07T17:23:45.950Z,100194.00
2019-04-07T17:26:15.671Z,100200.00
2019-04-07T17:28:48.101Z,100198.00
2019-04-07T17:31:17.498Z,100203.00
2019-04-07T17:33:47.476Z,100200.00
2019-04-07T17:36:20.192Z,100195.00
2019-04-07T17:39:09.630Z,100205.00
2019-04-07T17:41:39.533Z,100206.00
2019-04-07T17:44:26.580Z,100214.00
2019-04-07T17:47:04.136Z,100212.00
2019-04-07T17:49:35.770Z,100223.00
2019-04-07T17:52:13.086Z,100220.00
2019-04-07T17:54:56.137Z,100216.00
2019-04-07T17:57:32.217Z,100234.00
2019-04-07T18:00:02.979Z,100228.00
2019-04-07T18:02:37.593Z,100233.00
2019-04-07T18:05:10.640Z,100229.00
2019-04-07T18:07:43.687Z,100249.00
2019-04-07T18:10:18.090Z,100246.00
2019-04-07T18:13:06.323Z,100245.00
2019-04-07T18:15:46.694Z,100262.00
2019-04-07T18:18:30.419Z,100253.00
2019-04-07T18:21:11.762Z,100261.00
2019-04-07T18:23:43.968Z,100260.00
2019-04-07T18:26:28.475Z,100257.00
2019-04-07T18:28:59.759Z,100265.00
2019-04-07T18:31:40.048Z,100270.00
2019-04-07T18:34:15.437Z,100274.00
2019-04-07T18:37:06.132Z,100272.00
2019-04-07T18:39:41.908Z,100285.00
2019-04-07T18:42:17.179Z,100289.00
2019-04-07T18:44:58.489Z,100294.00
2019-04-07T18:47:45.849Z,100296.00
2019-04-07T18:50:26.491Z,100296.00
2019-04-07T18:53:07.167Z,100308.00
2019-04-07T18:55:55.748Z,100305.00
2019-04-07T18:58:29.404Z,100317.00
2019-04-07T19:01:17.009Z,100311.00
2019-04-07T19:03:51.156Z,100320.00
2019-04-07T19:06:27.098Z,100319.00
2019-04-07T19:09:04.773Z,100314.00
2019-04-07T19:11:39.245Z,100319.00
2019-04-07T19:14:41.956Z,100323.00
2019-04-07T19:17:03.123Z,100321.00
2019-04-07T19:19:34.339Z,100336.00
2019-04-07T19:22:19.692Z,100334.00
2019-04-07T19:24:51.425Z,100340.00
2019-04-07T19:27:31.574Z,100335.00
2019-04-07T19:30:05.869Z,100337.00
2019-04-07T19:32:52.662Z,100339.00
2019-04-07T19:35:22.160Z,100336.00
2019-04-07T19:38:08.259Z,100338.00
2019-04-07T19:40:47.995Z,100350.00
2019-04-07T19:43:25.045Z,100349.00
2019-04-07T19:45:59.062Z,100340.00
2019-04-07T19:48:39.114Z,100347.00
2019-04-07T19:51:09.839Z,100357.00
2019-04-07T19:53:53.618Z,100354.00
2019-04-07T19:56:33.655Z,100353.00
2019-04-07T19:59:21.637Z,100348.00
2019-04-07T20:02:02.240Z,100345.00
2019-04-07T20:04:53.255Z,100353.00
2019-04-07T20:07:28.599Z,100351.00
2019-04-07T20:10:01.393Z,100351.00
2019-04-07T20:12:38.278Z,100358.00
2019-04-07T20:15:24.105Z,100357.00
2019-04-07T20:17:58.660Z,100360.00
2019-04-07T20:20:30.263Z,100362.00
2019-04-07T20:23:18.824Z,100363.00
2019-04-07T20:26:02.037Z,100366.00
2019-04-07T20:28:41.067Z,100361.00
2019-04-07T20:31:12.641Z,100360.00
2019-04-07T20:33:46.923Z,100365.00
2019-04-07T20:36:34.065Z,100362.00
2019-04-07T20:39:17.201Z,100362.00
2019-04-07T20:41:48.474Z,100369.00
2019-04-07T20:44:19.673Z,100365.00
2019-04-07T20:47:07.916Z,100362.00
2019-04-07T20:49:57.305Z,100363.00
2019-04-07T20:52:34.200Z,100365.00
2019-04-07T20:55:08.076Z,100363.00
2019-04-07T20:57:48.197Z,100360.00
2019-04-07T21:00:28.953Z,100356.00
2019-04-07T21:03:21.430Z,100360.00
2019-04-07T21:05:56.016Z,100355.00
2019-04-07T21:08:30.221Z,100359.00
2019-04-07T21:11:04.686Z,100363.00
2019-04-07T21:13:36.308Z,100358.00
2019-04-07T21:16:08.220Z,100362.00
2019-04-07T21:18:51.603Z,100367.00
2019-04-07T21:21:41.654Z,100366.00
2019-04-07T21:24:39.051Z,100364.00
2019-04-07T21:27:14.233Z,100370.00
2019-04-07T21:30:02.423Z,100370.00
2019-04-07T21:32:39.889Z,100368.00
2019-04-07T21:35:15.038Z,100371.00
2019-04-07T21:37:49.350Z,100372.00
2019-04-07T21:40:26.571Z,100377.00
2019-04-07T21:43:06.789Z,100379.00
2019-04-07T21:45:45.223Z,100382.00
2019-04-07T21:48:11.738Z,100377.00
2019-04-07T21:50:51.864Z,100379.00
2019-04-07T21:53:28.861Z,100386.00
2019-04-07T21:56:01.681Z,100387.00
2019-04-07T21:58:41.985Z,100387.00
2019-04-07T22:01:26.186Z,100385.00
2019-04-07T22:03:57.382Z,100380.00
2019-04-07T22:06:29.854Z,100386.00
2019-04-07T22:09:02.172Z,100387.00
2019-04-07T22:11:32.586Z,100385.00
2019-04-07T22:14:04.106Z,100391.00
2019-04-07T22:16:34.245Z,100389.00
2019-04-07T22:19:04.227Z,100394.00
2019-04-07T22:21:34.167Z,100395.00
2019-04-07T22:24:04.814Z,100395.00
2019-04-07T22:26:34.986Z,100397.00
2019-04-07T22:29:05.545Z,100390.00
2019-04-07T22:31:36.862Z,100396.00
2019-04-07T22:34:06.895Z,100398.00
2019-04-07T22:36:36.415Z,100398.00
2019-04-07T22:39:07.769Z,100390.00
2019-04-07T22:41:41.217Z,100395.00
2019-04-07T22:44:09.231Z,100396.00
2019-04-07T22:46:39.559Z,100404.00
2019-04-07T22:49:09.352Z,100414.00
2019-04-07T22:51:43.009Z,100401.00
2019-04-07T22:54:10.095Z,100410.00
2019-04-07T22:56:40.575Z,100411.00
2019-04-07T22:59:11.597Z,100408.00
2019-04-07T23:01:41.687Z,100411.00
2019-04-07T23:04:11.968Z,100411.00
2019-04-07T23:06:42.477Z,100409.00
2019-04-07T23:09:12.093Z,100409.00
2019-04-07T23:11:41.643Z,100409.00
2019-04-07T23:14:11.531Z,100412.00
2019-04-07T23:16:41.067Z,100416.00
2019-04-07T23:19:10.949Z,100412.00
2019-04-07T23:21:40.647Z,100431.00
2019-04-07T23:24:10.865Z,100435.00
2019-04-07T23:26:40.522Z,100445.00
2019-04-07T23:29:10.143Z,100440.00
2019-04-07T23:31:40.474Z,100435.00
2019-04-07T23:34:10.549Z,100442.00
2019-04-07T23:36:40.158Z,100443.00
2019-04-07T23:39:09.969Z,100440.00
2019-04-07T23:41:39.512Z,100449.00
2019-04-07T23:44:09.426Z,100449.00
2019-04-07T23:46:39.382Z,100447.00
2019-04-07T23:49:09.936Z,100447.00
2019-04-07T23:51:39.399Z,100459.00
2019-04-07T23:54:14.331Z,100451.00
2019-04-07T23:56:44.726Z,100447.00
2019-04-07T23:59:14.831Z,100447.00
